createdAt,value
2023-04-13T00:00:35.188Z,99053.22
2023-04-13T00:03:12.193Z,99046.34
2023-04-13T00:05:42.449Z,99015.03
2023-04-13T00:08:10.842Z,99043.03
2023-04-13T00:10:41.940Z,99046.59
2023-04-13T00:13:11.917Z,99042.31
2023-04-13T00:15:44.210Z,99027.66
2023-04-13T00:18:12.918Z,99011.28
2023-04-13T00:20:43.452Z,99035.94
2023-04-13T00:23:12.383Z,99048.25
2023-04-13T00:25:42.081Z,99063.09
2023-04-13T00:28:10.528Z,99061.28
2023-04-13T00:30:39.163Z,99066.38
2023-04-13T00:33:07.562Z,99070.66
2023-04-13T00:35:35.882Z,99075.84
2023-04-13T00:38:04.503Z,99082.66
2023-04-13T00:40:33.265Z,99067.06
2023-04-13T00:43:03.036Z,99096.00
2023-04-13T00:45:31.495Z,99066.66
2023-04-13T00:48:00.396Z,99094.41
2023-04-13T00:50:29.478Z,99103.91
2023-04-13T00:52:58.256Z,99100.28
2023-04-13T00:55:27.751Z,99096.56
2023-04-13T00:57:57.954Z,99108.06
2023-04-13T01:00:27.881Z,99103.53
2023-04-13T01:02:57.299Z,99130.38
2023-04-13T01:05:29.556Z,99117.94
2023-04-13T01:08:09.798Z,99130.25
2023-04-13T01:10:44.767Z,99134.53
2023-04-13T01:13:22.673Z,99131.66
2023-04-13T01:16:03.767Z,99144.69
2023-04-13T01:18:39.672Z,99150.28
2023-04-13T01:21:14.276Z,99156.34
2023-04-13T01:23:57.826Z,99162.06
2023-04-13T01:26:38.762Z,99162.06
2023-04-13T01:29:08.666Z,99166.31
2023-04-13T01:31:37.839Z,99165.53
2023-04-13T01:34:06.250Z,99182.16
2023-04-13T01:36:35.197Z,99167.94
2023-04-13T01:39:04.334Z,99183.91
2023-04-13T01:41:33.638Z,99178.78
2023-04-13T01:44:02.505Z,99181.44
2023-04-13T01:46:37.589Z,99188.47
2023-04-13T01:49:19.691Z,99187.53
2023-04-13T01:52:12.126Z,99193.75
2023-04-13T01:54:45.729Z,99182.25
2023-04-13T01:57:15.928Z,99221.69
2023-04-13T01:59:45.254Z,99210.09
2023-04-13T02:02:19.609Z,99209.84
2023-04-13T02:04:48.578Z,99216.06
2023-04-13T02:07:17.536Z,99224.13
2023-04-13T02:09:50.321Z,99223.06
2023-04-13T02:12:19.139Z,99214.38
2023-04-13T02:14:47.388Z,99231.78
2023-04-13T02:17:15.741Z,99231.78
2023-04-13T02:19:46.201Z,99245.66
2023-04-13T02:22:16.306Z,99241.38
2023-04-13T02:24:44.618Z,99235.31
2023-04-13T02:27:13.176Z,99239.84
2023-04-13T02:29:41.663Z,99241.06
2023-04-13T02:32:10.066Z,99245.34
2023-04-13T02:34:38.886Z,99246.19
2023-04-13T02:37:09.519Z,99255.56
2023-04-13T02:39:38.448Z,99257.03
2023-04-13T02:42:08.444Z,99265.06
2023-04-13T02:44:38.647Z,99269.53
2023-04-13T02:47:07.622Z,99265.19
2023-04-13T02:49:37.557Z,99275.13
2023-04-13T02:52:21.571Z,99267.25
2023-04-13T02:55:05.067Z,99263.06
2023-04-13T02:57:45.410Z,99272.38
2023-04-13T03:00:16.965Z,99284.97
2023-04-13T03:02:55.747Z,99298.94
2023-04-13T03:05:28.978Z,99298.84
2023-04-13T03:07:59.344Z,99295.59
2023-04-13T03:10:31.104Z,99293.63
2023-04-13T03:13:01.266Z,99295.53
2023-04-13T03:15:30.703Z,99305.94
2023-04-13T03:18:00.587Z,99319.94
2023-04-13T03:20:31.265Z,99311.38
2023-04-13T03:23:05.809Z,99330.03
2023-04-13T03:25:36.926Z,99331.78
2023-04-13T03:28:06.455Z,99313.72
2023-04-13T03:30:41.026Z,99338.09
2023-04-13T03:33:09.358Z,99336.28
2023-04-13T03:35:39.884Z,99331.84
2023-04-13T03:38:16.715Z,99234.38
2023-04-13T03:40:47.862Z,99351.09
2023-04-13T03:43:16.724Z,99322.69
2023-04-13T03:45:50.958Z,99361.72
2023-04-13T03:48:20.847Z,99336.66
2023-04-13T03:50:49.118Z,99370.38
2023-04-13T03:53:22.827Z,99252.44
2023-04-13T03:55:54.339Z,99369.28
2023-04-13T03:58:23.839Z,99361.56
2023-04-13T04:00:52.992Z,99359.66
2023-04-13T04:03:35.863Z,99278.25
2023-04-13T04:06:10.034Z,99345.88
2023-04-13T04:08:43.940Z,99372.06
2023-04-13T04:11:23.894Z,99376.28
2023-04-13T04:13:52.997Z,99367.84
2023-04-13T04:16:21.351Z,99372.84
2023-04-13T04:18:55.226Z,99369.34
2023-04-13T04:21:23.600Z,99366.84
2023-04-13T04:23:53.311Z,99380.16
2023-04-13T04:26:25.718Z,99386.88
2023-04-13T04:29:03.057Z,99402.31
2023-04-13T04:31:37.106Z,99386.22
2023-04-13T04:34:10.560Z,99383.63
2023-04-13T04:36:42.042Z,99400.00
2023-04-13T04:39:14.377Z,99390.69
2023-04-13T04:41:54.230Z,99404.72
2023-04-13T04:44:25.320Z,99401.19
2023-04-13T04:46:55.282Z,99423.59
2023-04-13T04:49:23.854Z,99418.81
2023-04-13T04:51:53.032Z,99414.56
2023-04-13T04:54:23.465Z,99429.25
2023-04-13T04:56:52.768Z,99334.78
2023-04-13T04:59:22.157Z,99443.31
2023-04-13T05:01:58.506Z,99440.97
2023-04-13T05:04:26.957Z,99438.81
2023-04-13T05:06:55.377Z,99437.09
2023-04-13T05:09:28.128Z,99440.97
2023-04-13T05:11:58.161Z,99440.09
2023-04-13T05:14:26.660Z,99435.88
2023-04-13T05:16:55.654Z,99446.56
2023-04-13T05:19:27.905Z,99438.13
2023-04-13T05:22:25.605Z,99445.94
2023-04-13T05:25:01.832Z,99445.91
2023-04-13T05:27:31.639Z,99456.28
2023-04-13T05:30:00.071Z,99457.00
2023-04-13T05:32:28.674Z,99456.00
2023-04-13T05:35:00.455Z,99479.44
2023-04-13T05:37:29.028Z,99470.81
2023-04-13T05:39:57.719Z,99478.75
2023-04-13T05:42:34.004Z,99478.25
2023-04-13T05:45:04.047Z,99468.25
2023-04-13T05:47:32.624Z,99480.69
2023-04-13T05:50:10.583Z,99487.22
2023-04-13T05:52:38.888Z,99496.34
2023-04-13T05:55:07.952Z,99488.44
2023-04-13T05:57:38.307Z,99498.81
2023-04-13T06:00:14.075Z,99504.28
2023-04-13T06:02:49.230Z,99515.72
2023-04-13T06:05:18.356Z,99510.44
2023-04-13T06:07:47.837Z,99529.91
2023-04-13T06:10:16.764Z,99545.19
2023-04-13T06:12:48.896Z,99529.81
2023-04-13T06:15:18.377Z,99544.34
2023-04-13T06:17:46.797Z,99555.53
2023-04-13T06:20:15.667Z,99565.06
2023-04-13T06:22:44.018Z,99551.00
2023-04-13T06:25:13.762Z,99554.38
2023-04-13T06:27:44.456Z,99562.97
2023-04-13T06:30:14.891Z,99557.66
2023-04-13T06:32:44.314Z,99574.38
2023-04-13T06:35:13.382Z,99581.19
2023-04-13T06:37:46.523Z,99591.06
2023-04-13T06:40:21.095Z,99564.25
2023-04-13T06:43:08.933Z,99600.84
2023-04-13T06:46:06.963Z,99610.44
2023-04-13T06:48:45.098Z,99607.81
2023-04-13T06:51:18.932Z,99595.34
2023-04-13T06:53:48.614Z,99612.03
2023-04-13T06:56:17.131Z,99610.88
2023-04-13T06:58:46.553Z,99613.47
2023-04-13T07:01:16.406Z,99615.22
2023-04-13T07:03:46.616Z,99630.25
2023-04-13T07:06:16.724Z,99637.91
2023-04-13T07:08:45.167Z,99633.25
2023-04-13T07:11:14.427Z,99642.53
2023-04-13T07:13:43.630Z,99644.16
2023-04-13T07:16:16.184Z,99650.31
2023-04-13T07:18:47.514Z,99667.03
2023-04-13T07:21:16.104Z,99654.69
2023-04-13T07:24:16.921Z,99672.34
2023-04-13T07:26:46.905Z,99682.56
2023-04-13T07:29:17.245Z,99675.59
2023-04-13T07:31:52.754Z,99675.69
2023-04-13T07:34:21.932Z,99691.34
2023-04-13T07:36:51.436Z,99689.66
2023-04-13T07:39:22.465Z,99707.25
2023-04-13T07:41:53.286Z,99702.09
2023-04-13T07:44:36.502Z,99698.41
2023-04-13T07:47:06.976Z,99723.81
2023-04-13T07:49:38.588Z,99713.31
2023-04-13T07:52:11.290Z,99722.16
2023-04-13T07:54:41.392Z,99737.16
2023-04-13T07:57:12.016Z,99742.22
2023-04-13T07:59:46.029Z,99743.28
2023-04-13T08:02:18.368Z,99752.84
2023-04-13T08:04:50.306Z,99759.75
2023-04-13T08:07:23.772Z,99757.63
2023-04-13T08:09:52.776Z,99766.34
2023-04-13T08:12:22.979Z,99765.97
2023-04-13T08:14:53.133Z,99784.38
2023-04-13T08:17:23.088Z,99782.84
2023-04-13T08:19:52.510Z,99777.50
2023-04-13T08:22:21.279Z,99789.84
2023-04-13T08:24:49.704Z,99793.28
2023-04-13T08:27:19.385Z,99789.78
2023-04-13T08:29:47.708Z,99798.47
2023-04-13T08:32:16.869Z,99798.53
2023-04-13T08:34:46.886Z,99795.50
2023-04-13T08:37:17.928Z,99810.06
2023-04-13T08:39:48.315Z,99806.03
2023-04-13T08:42:21.631Z,99814.81
2023-04-13T08:44:52.779Z,99815.75
2023-04-13T08:47:21.201Z,99812.22
2023-04-13T08:49:52.155Z,99828.03
2023-04-13T08:52:32.666Z,99821.81
2023-04-13T08:55:02.387Z,99838.03
2023-04-13T08:57:34.769Z,99821.03
2023-04-13T09:00:10.286Z,99843.28
2023-04-13T09:02:56.024Z,99835.69
2023-04-13T09:05:34.110Z,99853.25
2023-04-13T09:08:08.037Z,99851.69
2023-04-13T09:10:38.740Z,99865.34
2023-04-13T09:13:09.487Z,99867.78
2023-04-13T09:15:38.882Z,99864.03
2023-04-13T09:18:20.557Z,99879.13
2023-04-13T09:21:00.918Z,99896.19
2023-04-13T09:23:29.306Z,99888.59
2023-04-13T09:26:08.184Z,99893.66
2023-04-13T09:28:48.143Z,99900.34
2023-04-13T09:31:16.938Z,99918.06
2023-04-13T09:33:46.777Z,99911.19
2023-04-13T09:36:18.568Z,99912.91
2023-04-13T09:38:52.165Z,99913.69
2023-04-13T09:41:34.293Z,99909.31
2023-04-13T09:44:04.028Z,99927.53
2023-04-13T09:46:32.643Z,99912.03
2023-04-13T09:49:03.556Z,99932.53
2023-04-13T09:51:42.194Z,99938.31
2023-04-13T09:54:12.574Z,99958.63
2023-04-13T09:56:47.011Z,99952.41
2023-04-13T09:59:15.810Z,99957.56
2023-04-13T10:01:45.247Z,99970.78
2023-04-13T10:04:13.898Z,99970.59
2023-04-13T10:06:44.915Z,99985.63
2023-04-13T10:09:13.549Z,99984.94
2023-04-13T10:11:46.727Z,99995.31
2023-04-13T10:14:19.255Z,100016.00
2023-04-13T10:17:20.183Z,99981.22
2023-04-13T10:19:50.859Z,99975.91
2023-04-13T10:22:22.812Z,100000.34
2023-04-13T10:24:53.409Z,100005.88
2023-04-13T10:27:23.789Z,100018.22
2023-04-13T10:29:52.261Z,100010.03
2023-04-13T10:32:27.437Z,99982.19
2023-04-13T10:34:56.873Z,100024.19
2023-04-13T10:37:30.000Z,100019.47
2023-04-13T10:40:07.926Z,100027.69
2023-04-13T10:45:21.327Z,100034.81
2023-04-13T10:47:49.985Z,100048.72
2023-04-13T10:50:21.061Z,100058.16
2023-04-13T10:53:03.210Z,100057.47
2023-04-13T10:55:31.958Z,100058.50
2023-04-13T10:58:02.111Z,100043.25
2023-04-13T11:00:45.524Z,100071.19
2023-04-13T11:03:17.846Z,100085.81
2023-04-13T11:05:47.419Z,100083.13
2023-04-13T11:08:21.817Z,100084.38
2023-04-13T11:10:53.950Z,99992.66
2023-04-13T11:13:25.089Z,100094.84
2023-04-13T11:16:02.397Z,100099.19
2023-04-13T11:18:30.859Z,100095.94
2023-04-13T11:20:59.438Z,100094.84
2023-04-13T11:23:34.434Z,100106.34
2023-04-13T11:26:04.637Z,100117.22
2023-04-13T11:28:40.263Z,100114.97
2023-04-13T11:31:08.875Z,100118.88
2023-04-13T11:33:39.929Z,100122.25
2023-04-13T11:36:11.885Z,100127.34
2023-04-13T11:38:42.742Z,100119.81
2023-04-13T11:43:42.984Z,100137.72
2023-04-13T11:46:13.714Z,100119.28
2023-04-13T11:48:43.189Z,100137.75
2023-04-13T11:51:12.144Z,100135.09
2023-04-13T11:53:42.351Z,100139.75
2023-04-13T11:56:11.548Z,100153.53
2023-04-13T11:58:40.479Z,100147.06
2023-04-13T12:01:14.318Z,100148.66
2023-04-13T12:06:17.560Z,100164.41
2023-04-13T12:08:52.615Z,100150.78
2023-04-13T12:11:41.186Z,100142.84
2023-04-13T12:19:27.482Z,100186.03
2023-04-13T12:21:57.569Z,100184.63
2023-04-13T12:24:37.800Z,100202.38
2023-04-13T12:29:42.192Z,100197.19
2023-04-13T12:32:15.428Z,100197.34
2023-04-13T12:34:44.804Z,100192.19
2023-04-13T12:37:14.830Z,100207.88
2023-04-13T12:39:44.968Z,100207.88
2023-04-13T12:42:13.508Z,100215.69
2023-04-13T12:44:41.822Z,100219.84
2023-04-13T12:47:10.258Z,100219.44
2023-04-13T12:49:38.595Z,100220.31
2023-04-13T12:52:07.076Z,100231.22
2023-04-13T12:54:35.387Z,100208.63
2023-04-13T12:57:05.231Z,100239.78
2023-04-13T12:59:33.544Z,100238.19
2023-04-13T13:02:02.173Z,100237.47
2023-04-13T13:04:30.793Z,100234.72
2023-04-13T13:07:00.507Z,100229.56
2023-04-13T13:09:29.199Z,100233.44
2023-04-13T13:11:58.032Z,100232.06
2023-04-13T13:14:28.340Z,100229.97
2023-04-13T13:16:56.838Z,100234.66
2023-04-13T13:19:25.226Z,100237.88
2023-04-13T13:21:53.529Z,100237.59
2023-04-13T13:24:21.842Z,100241.16
2023-04-13T13:27:17.016Z,100241.84
2023-04-13T13:29:40.655Z,100266.53
2023-04-13T13:32:10.409Z,100246.50
2023-04-13T13:34:38.778Z,100244.91
2023-04-13T13:37:07.323Z,100248.28
2023-04-13T13:39:35.785Z,100260.69
2023-04-13T13:42:04.545Z,100270.38
2023-04-13T13:44:34.345Z,100271.00
2023-04-13T13:47:05.001Z,100265.78
2023-04-13T13:49:33.743Z,100268.94
2023-04-13T13:52:20.282Z,100263.25
2023-04-13T13:54:54.543Z,100265.53
2023-04-13T13:57:22.877Z,100265.47
2023-04-13T13:59:51.346Z,100277.81
2023-04-13T14:02:21.515Z,100162.94
2023-04-13T14:04:49.841Z,100273.88
2023-04-13T14:07:18.127Z,100248.13
2023-04-13T14:09:46.978Z,100281.59
2023-04-13T14:12:15.424Z,100278.94
2023-04-13T14:14:43.746Z,100285.31
2023-04-13T14:17:12.150Z,100283.34
2023-04-13T14:19:41.874Z,100284.75
2023-04-13T14:22:10.216Z,100277.66
2023-04-13T14:24:46.684Z,100268.25
2023-04-13T14:27:15.321Z,100293.13
2023-04-13T14:29:43.656Z,100290.47
2023-04-13T14:32:12.038Z,100287.22
2023-04-13T14:34:40.388Z,100305.13
2023-04-13T14:37:10.038Z,100278.81
2023-04-13T14:39:38.407Z,100278.09
2023-04-13T14:42:08.782Z,100294.03
2023-04-13T14:44:37.219Z,100298.25
2023-04-13T14:47:08.754Z,100285.41
2023-04-13T14:49:38.059Z,100297.84
2023-04-13T14:52:07.252Z,100292.53
2023-04-13T14:54:36.480Z,100311.44
2023-04-13T14:57:05.053Z,100310.63
2023-04-13T14:59:34.779Z,100308.91
2023-04-13T15:02:03.288Z,100299.97
2023-04-13T15:04:32.358Z,100301.00
2023-04-13T15:07:01.446Z,100306.31
2023-04-13T15:09:30.072Z,100319.59
2023-04-13T15:11:58.411Z,100321.91
2023-04-13T15:14:26.889Z,100332.22
2023-04-13T15:16:56.625Z,100329.66
2023-04-13T15:19:25.199Z,100320.84
2023-04-13T15:21:53.560Z,100327.84
2023-04-13T15:24:21.918Z,100331.53
2023-04-13T15:26:50.501Z,100325.22
2023-04-13T15:29:18.864Z,100329.97
2023-04-13T15:31:47.185Z,100333.25
2023-04-13T15:34:16.982Z,100334.63
2023-04-13T15:36:45.350Z,100342.44
2023-04-13T15:39:13.824Z,100342.38
2023-04-13T15:41:42.152Z,100345.66
2023-04-13T15:44:10.762Z,100349.94
2023-04-13T15:46:40.135Z,100344.69
2023-04-13T15:49:08.446Z,100276.06
2023-04-13T15:51:38.632Z,100337.94
2023-04-13T15:54:07.193Z,100357.59
2023-04-13T15:56:35.546Z,100363.50
2023-04-13T15:59:04.076Z,100359.16
2023-04-13T16:01:45.850Z,100347.06
2023-04-13T16:04:14.512Z,100354.13
2023-04-13T16:06:44.471Z,100363.69
2023-04-13T16:09:12.834Z,100356.00
2023-04-13T16:11:42.223Z,100346.31
2023-04-13T16:14:10.904Z,100356.75
2023-04-13T16:16:46.588Z,100360.50
2023-04-13T16:19:18.030Z,100365.00
2023-04-13T16:21:50.846Z,100340.53
2023-04-13T16:24:21.024Z,100343.19
2023-04-13T16:26:49.440Z,100368.44
2023-04-13T16:29:18.033Z,100372.91
2023-04-13T16:31:48.224Z,100376.47
2023-04-13T16:34:25.572Z,100380.75
2023-04-13T16:36:57.443Z,100368.63
2023-04-13T16:39:25.849Z,100393.81
2023-04-13T16:41:54.197Z,100391.31
2023-04-13T16:44:22.612Z,100383.44
2023-04-13T16:46:51.245Z,100391.63
2023-04-13T16:49:19.717Z,100392.75
2023-04-13T16:51:48.529Z,100391.00
2023-04-13T16:54:19.300Z,100416.09
2023-04-13T16:56:47.817Z,100394.19
2023-04-13T16:59:16.204Z,100403.19
2023-04-13T17:01:44.657Z,100403.13
2023-04-13T17:04:13.748Z,100378.56
2023-04-13T17:06:42.274Z,100401.97
2023-04-13T17:09:11.306Z,100406.63
2023-04-13T17:11:41.915Z,100409.34
2023-04-13T17:14:10.628Z,100415.53
2023-04-13T17:16:38.929Z,100414.50
2023-04-13T17:19:07.393Z,100409.41
2023-04-13T17:21:35.780Z,100417.56
2023-04-13T17:24:04.556Z,100408.53
2023-04-13T17:26:33.292Z,100412.13
2023-04-13T17:29:03.118Z,100421.91
2023-04-13T17:31:31.525Z,100409.78
2023-04-13T17:33:59.827Z,100418.63
2023-04-13T17:36:28.455Z,100418.94
2023-04-13T17:38:56.841Z,100420.66
2023-04-13T17:41:25.170Z,100420.78
2023-04-13T17:43:53.491Z,100415.56
2023-04-13T17:46:23.215Z,100429.78
2023-04-13T17:48:51.607Z,100422.75
2023-04-13T17:51:19.982Z,100428.06
2023-04-13T17:53:48.373Z,100430.00
2023-04-13T17:56:17.687Z,100389.94
2023-04-13T17:58:46.780Z,100444.38
2023-04-13T18:01:15.241Z,100441.50
2023-04-13T18:03:45.454Z,100447.66
2023-04-13T18:06:14.019Z,100439.84
2023-04-13T18:08:42.302Z,100448.72
2023-04-13T18:11:11.999Z,100453.81
2023-04-13T18:13:41.267Z,100458.66
2023-04-13T18:16:11.755Z,100449.69
2023-04-13T18:18:41.880Z,100462.03
2023-04-13T18:21:11.638Z,100446.22
2023-04-13T18:23:40.074Z,100458.59
2023-04-13T18:26:08.511Z,100452.66
2023-04-13T18:28:37.471Z,100469.22
2023-04-13T18:31:07.115Z,100473.66
2023-04-13T18:33:35.479Z,100471.84
2023-04-13T18:36:03.748Z,100472.88
2023-04-13T18:38:34.803Z,100474.72
2023-04-13T18:41:03.283Z,100486.94
2023-04-13T18:43:31.633Z,100481.78
2023-04-13T18:46:01.465Z,100490.63
2023-04-13T18:48:30.787Z,100484.56
2023-04-13T18:50:59.122Z,100493.44
2023-04-13T18:53:28.475Z,100499.63
2023-04-13T18:55:59.796Z,100510.19
2023-04-13T18:58:28.256Z,100507.59
2023-04-13T19:00:56.999Z,100492.13
2023-04-13T19:03:25.514Z,100512.28
2023-04-13T19:05:53.955Z,100509.81
2023-04-13T19:08:22.370Z,100517.91
2023-04-13T19:10:50.783Z,100519.78
2023-04-13T19:13:20.604Z,100518.91
2023-04-13T19:15:49.461Z,100525.25
2023-04-13T19:18:18.197Z,100530.63
2023-04-13T19:20:46.566Z,100532.50
2023-04-13T19:23:14.877Z,100529.75
2023-04-13T19:25:43.199Z,100540.44
2023-04-13T19:28:11.780Z,100543.97
2023-04-13T19:30:41.511Z,100546.72
2023-04-13T19:33:09.979Z,100545.00
2023-04-13T19:35:38.454Z,100561.78
2023-04-13T19:38:06.791Z,100553.97
2023-04-13T19:40:35.612Z,100564.53
2023-04-13T19:43:04.316Z,100553.13
2023-04-13T19:45:32.772Z,100573.41
2023-04-13T19:48:02.680Z,100574.34
2023-04-13T19:50:31.375Z,100575.28
2023-04-13T19:52:59.702Z,100570.94
2023-04-13T19:55:28.419Z,100580.66
2023-04-13T19:57:56.773Z,100553.53
2023-04-13T20:00:28.153Z,100590.41
2023-04-13T20:03:02.682Z,100586.03
2023-04-13T20:05:32.812Z,100565.91
2023-04-13T20:08:01.320Z,100517.78
2023-04-13T20:10:29.562Z,100594.06
2023-04-13T20:12:57.896Z,100597.53
2023-04-13T20:15:26.409Z,100601.09
2023-04-13T20:17:54.832Z,100608.16
2023-04-13T20:20:24.472Z,100609.94
2023-04-13T20:22:54.154Z,100605.50
2023-04-13T20:25:22.587Z,100624.00
2023-04-13T20:27:51.088Z,100615.19
2023-04-13T20:30:19.775Z,100621.41
2023-04-13T20:32:48.353Z,100619.63
2023-04-13T20:35:17.001Z,100628.47
2023-04-13T20:37:45.414Z,100626.66
2023-04-13T20:40:15.204Z,100616.13
2023-04-13T20:42:44.320Z,100621.41
2023-04-13T20:45:14.911Z,100632.88
2023-04-13T20:47:43.543Z,100630.22
2023-04-13T20:50:13.109Z,100628.44
2023-04-13T20:52:42.647Z,100507.50
2023-04-13T20:55:11.686Z,100632.88
2023-04-13T20:57:42.181Z,100633.81
2023-04-13T21:00:15.473Z,100630.31
2023-04-13T21:02:44.967Z,100629.44
2023-04-13T21:05:13.830Z,100627.72
2023-04-13T21:07:42.371Z,100629.47
2023-04-13T21:10:12.161Z,100635.78
2023-04-13T21:12:44.275Z,100625.94
2023-04-13T21:15:13.363Z,100628.50
2023-04-13T21:17:41.725Z,100639.13
2023-04-13T21:20:11.980Z,100641.72
2023-04-13T21:22:40.500Z,100647.03
2023-04-13T21:25:09.419Z,100646.19
2023-04-13T21:27:37.851Z,100636.56
2023-04-13T21:30:09.477Z,100641.81
2023-04-13T21:32:37.971Z,100641.84
2023-04-13T21:35:07.767Z,100648.03
2023-04-13T21:37:36.215Z,100639.19
2023-04-13T21:40:05.125Z,100642.75
2023-04-13T21:42:33.489Z,100648.19
2023-04-13T21:45:01.837Z,100635.19
2023-04-13T21:47:31.710Z,100645.66
2023-04-13T21:50:00.244Z,100643.09
2023-04-13T21:52:30.130Z,100627.25
2023-04-13T21:54:59.798Z,100635.16
2023-04-13T21:57:28.511Z,100636.03
2023-04-13T21:59:57.366Z,100627.28
2023-04-13T22:02:26.304Z,100629.06
2023-04-13T22:04:56.125Z,100611.50
2023-04-13T22:07:39.046Z,100630.78
2023-04-13T22:10:11.447Z,100633.38
2023-04-13T22:12:39.832Z,100636.03
2023-04-13T22:15:09.526Z,100628.91
2023-04-13T22:17:37.868Z,100629.81
2023-04-13T22:20:09.667Z,100632.44
2023-04-13T22:22:37.989Z,100630.69
2023-04-13T22:25:07.256Z,100635.97
2023-04-13T22:27:37.701Z,100635.94
2023-04-13T22:30:08.038Z,100656.25
2023-04-13T22:32:39.518Z,100616.69
2023-04-13T22:35:11.122Z,100635.06
2023-04-13T22:37:39.483Z,100636.81
2023-04-13T22:40:09.527Z,100636.78
2023-04-13T22:42:37.890Z,100622.78
2023-04-13T22:45:07.506Z,100629.78
2023-04-13T22:47:36.407Z,100633.28
2023-04-13T22:50:05.088Z,100629.78
2023-04-13T22:52:34.830Z,100626.28
2023-04-13T22:55:03.225Z,100635.13
2023-04-13T22:57:31.542Z,100632.50
2023-04-13T22:59:59.832Z,100635.16
2023-04-13T23:02:28.456Z,100635.19
2023-04-13T23:04:57.121Z,100632.56
2023-04-13T23:07:25.880Z,100596.56
2023-04-13T23:09:55.557Z,100631.69
2023-04-13T23:12:23.901Z,100620.28
2023-04-13T23:14:53.288Z,100621.22
2023-04-13T23:17:21.748Z,100630.03
2023-04-13T23:19:50.064Z,100633.56
2023-04-13T23:22:18.391Z,100629.19
2023-04-13T23:24:46.668Z,100639.78
2023-04-13T23:27:16.517Z,100632.66
2023-04-13T23:29:45.678Z,100641.47
2023-04-13T23:32:14.115Z,100648.53
2023-04-13T23:34:42.421Z,100652.94
2023-04-13T23:37:10.795Z,100503.78
2023-04-13T23:39:39.197Z,100650.28
2023-04-13T23:42:08.493Z,100643.19
2023-04-13T23:44:38.108Z,100644.06
2023-04-13T23:47:07.111Z,100647.59
2023-04-13T23:49:35.467Z,100641.41
2023-04-13T23:52:03.841Z,100652.00
2023-04-13T23:54:32.378Z,100641.41
2023-04-13T23:57:01.590Z,100650.19
2023-04-13T23:59:30.462Z,100639.69
